Karinya Fr699 — MAUA8 — position and weather

sailwx.info

Track history (hours):
 
Tides and Currents Weather Stations Pressure Air Temp Water Temp Dewpoint Dewpoint Depression Visibility Wind Speed Wind Dir Waves Ship Positions

Karinya Fr699

Last reported at 2015-May-21 17:34 UTC. Time now 2015-May-22 13:02 UTC.
Position N 57°42' W 002°00'.

Length 16 m.

MMSI: 235018981.

Date/timePositionNaut miles runAvg speedWind from/ knotsBaromVisibWave heightAir tempDewpointWater temp
2015-May-21 17:34N 57°42' W 002°00'0 0.0
2015-May-21 16:34N 57°42' W 002°00'0 0.0
2015-May-21 15:34N 57°42' W 002°00'0 0.0
2015-May-21 14:33N 57°42' W 002°00'0 0.1
2015-May-21 13:33N 57°42' W 001°60'0 0.0
2015-May-21 12:33N 57°42' W 001°60'0 0.1
2015-May-21 11:33N 57°42' W 002°00'0 0.0
2015-May-21 10:34N 57°42' W 002°00'0 0.0
2015-May-21 09:34N 57°42' W 002°00'  
2015-May-18 14:12N 57°42' W 002°00'0 0.0
2015-May-18 13:33N 57°42' W 002°00'0 0.0
2015-May-18 12:33N 57°42' W 002°00'0 0.0
2015-May-18 11:33N 57°42' W 002°00'0 0.0
2015-May-18 10:33N 57°42' W 002°00'0 0.0
2015-May-18 09:33N 57°42' W 002°00'0 0.0
2015-May-18 08:33N 57°42' W 002°00'0 0.0
2015-May-18 07:33N 57°42' W 002°00'0 0.0
2015-May-18 06:33N 57°42' W 002°00'2 2.1
2015-May-18 05:33N 57°44' W 002°01'62 8.8
2015-May-17 22:32N 58°37' W 002°59'1010.3
2015-May-17 21:31N 58°41' W 003°17'1111.0
2015-May-17 20:33N 58°41' W 003°38'1010.3
2015-May-17 19:33N 58°41' W 003°57'11 9.9
2015-May-17 18:30N 58°40' W 004°18'47 7.4
2015-May-17 12:07N 58°12' W 005°29'  
2015-May-12 20:33N 58°07' W 005°56'3 3.2
2015-May-12 19:34N 58°10' W 005°60'2 2.2
2015-May-12 18:34N 58°08' W 006°01'3 2.7
2015-May-12 17:33N 58°06' W 006°05'3 2.7
2015-May-12 16:33N 58°04' W 006°09'  
Track history (hours):
 
Tides and Currents Weather Stations Pressure Air Temp Water Temp Dewpoint Dewpoint Depression Visibility Wind Speed Wind Dir Waves Ship Positions

Karinya Fr699

Last reported at 2015-May-21 17:34 UTC. Time now 2015-May-22 13:02 UTC.
Position N 57°42' W 002°00'.

Length 16 m.

MMSI: 235018981.

Date/timePositionNaut miles runAvg speedWind from/ knotsBaromVisibWave heightAir tempDewpointWater temp
2015-May-21 17:34N 57°42' W 002°00'0 0.0
2015-May-21 16:34N 57°42' W 002°00'0 0.0
2015-May-21 15:34N 57°42' W 002°00'0 0.0
2015-May-21 14:33N 57°42' W 002°00'0 0.1
2015-May-21 13:33N 57°42' W 001°60'0 0.0
2015-May-21 12:33N 57°42' W 001°60'0 0.1
2015-May-21 11:33N 57°42' W 002°00'0 0.0
2015-May-21 10:34N 57°42' W 002°00'0 0.0
2015-May-21 09:34N 57°42' W 002°00'  
2015-May-18 14:12N 57°42' W 002°00'0 0.0
2015-May-18 13:33N 57°42' W 002°00'0 0.0
2015-May-18 12:33N 57°42' W 002°00'0 0.0
2015-May-18 11:33N 57°42' W 002°00'0 0.0
2015-May-18 10:33N 57°42' W 002°00'0 0.0
2015-May-18 09:33N 57°42' W 002°00'0 0.0
2015-May-18 08:33N 57°42' W 002°00'0 0.0
2015-May-18 07:33N 57°42' W 002°00'0 0.0
2015-May-18 06:33N 57°42' W 002°00'2 2.1
2015-May-18 05:33N 57°44' W 002°01'62 8.8
2015-May-17 22:32N 58°37' W 002°59'1010.3
2015-May-17 21:31N 58°41' W 003°17'1111.0
2015-May-17 20:33N 58°41' W 003°38'1010.3
2015-May-17 19:33N 58°41' W 003°57'11 9.9
2015-May-17 18:30N 58°40' W 004°18'47 7.4
2015-May-17 12:07N 58°12' W 005°29'  
2015-May-12 20:33N 58°07' W 005°56'3 3.2
2015-May-12 19:34N 58°10' W 005°60'2 2.2
2015-May-12 18:34N 58°08' W 006°01'3 2.7
2015-May-12 17:33N 58°06' W 006°05'3 2.7
2015-May-12 16:33N 58°04' W 006°09'  

Dump ship's entire track history